Aeroporto :
LOGIN :

Iscrizione | Disclaimer

   EN    FR    IT 

 










Sommario :    VFR   VFR Marginale   IFR   IFR Intensivo   IFR Molto Intensivo
Visibilità : 
Base nubi : 
>= 8 km
>= 3000ft
5 / 8 km
1000 / 3000 ft
1500m / 5 km
500 / 1000 ft
800 / 1500m
200 / 500 ft
< 800m
< 200 ft
Simboli :   Temporali  Nebbia  Neve Forte  Precipitazioni Forti  Vento > 20 kt
SIGMETs :   Varie  Temporali  Ghiacco  Turbolenza  Onda orograficha  Ceneri Vulcaniche







- Altitudine del aeroporto : 1674 ft
- Codice IATA : BRN


LSZB - Bern Belp

ULTIMO METAR :
  • 172220Z AUTO 09005KT 9999 OVC120 18/14 Q1014

METARs OBSOLETI :
  • 172150Z AUTO 09007KT 9999 SCT120 18/14 Q1014
  • 172120Z AUTO 09007KT 9999 FEW100 SCT120 BKN140 19/14 Q1014
  • 172050Z AUTO 08006KT 9999 BKN120 BKN140 20/14 Q1014
  • 172020Z AUTO 10006KT 9999 BKN120 SCT140 20/14 Q1014
  • 171950Z AUTO 10006KT 9999 FEW090 OVC110 BKN130 21/14 Q1014

TAF TAF LSZB
Valido dal 17 a 15 ore il 18 a 00 ore UTC


171425Z 1715/1724 VRB03KT 9999 SCT120 BKN160
BECMG 1721/1724 CAVOK
ATIS : +41 22 417 40 76
Nessun NOTAM noto per questo aeroporto.



MetMap, La meteo Aeronautica in un colpo d'occhio ! - Copyright ORBIFLY Dicembre 2007 - Disclaimer

ORBIFLY MET'MAP TEAM :

Programmazione e sviluppo : Alexandra Zaïnal
Concezione e sviluppo : Baudouin d'Aumeries
Co-Programmazione e sviluppo : Marc-Olivier Méhu
Supporto tecnico e logistico : Manuel Goepfert
Aiuto per la traduzione : Arnaldo La Scala

Contatto : metmap@orbifly.com




FONTI E CREDITI :

   NOAA